sensor_id;sensor_type;location;lat;lon;timestamp;pressure;altitude;pressure_sealevel;temperature;humidity
71424;BME280;59240;51.370;-0.486;2024-01-06T00:02:59;100930.78;;;7.87;100.00
71424;BME280;59240;51.370;-0.486;2024-01-06T00:07:56;100932.56;;;7.85;100.00
71424;BME280;59240;51.370;-0.486;2024-01-06T00:12:53;100898.16;;;7.64;100.00
71424;BME280;59240;51.370;-0.486;2024-01-06T00:17:50;100934.31;;;7.80;100.00
71424;BME280;59240;51.370;-0.486;2024-01-06T00:22:46;100955.03;;;7.86;100.00
71424;BME280;59240;51.370;-0.486;2024-01-06T00:27:43;100957.59;;;7.87;100.00
71424;BME280;59240;51.370;-0.486;2024-01-06T00:32:40;100955.88;;;7.89;100.00
71424;BME280;59240;51.370;-0.486;2024-01-06T00:37:37;100904.25;;;7.57;100.00
71424;BME280;59240;51.370;-0.486;2024-01-06T00:42:34;100936.94;;;7.74;100.00
71424;BME280;59240;51.370;-0.486;2024-01-06T00:47:32;100947.31;;;7.77;100.00
71424;BME280;59240;51.370;-0.486;2024-01-06T00:52:29;100943.00;;;7.73;100.00
71424;BME280;59240;51.370;-0.486;2024-01-06T00:57:26;100965.41;;;7.86;100.00
71424;BME280;59240;51.370;-0.486;2024-01-06T01:02:23;100924.94;;;7.63;100.00
71424;BME280;59240;51.370;-0.486;2024-01-06T01:07:20;100958.53;;;7.79;100.00
71424;BME280;59240;51.370;-0.486;2024-01-06T01:12:17;100952.50;;;7.75;100.00
71424;BME280;59240;51.370;-0.486;2024-01-06T01:17:14;100968.91;;;7.79;100.00
71424;BME280;59240;51.370;-0.486;2024-01-06T01:22:11;100987.09;;;7.74;100.00
71424;BME280;59240;51.370;-0.486;2024-01-06T01:27:08;100977.66;;;7.65;100.00
71424;BME280;59240;51.370;-0.486;2024-01-06T01:32:05;100971.63;;;7.63;100.00
71424;BME280;59240;51.370;-0.486;2024-01-06T01:37:03;100988.84;;;7.67;100.00
71424;BME280;59240;51.370;-0.486;2024-01-06T01:42:00;100971.69;;;7.51;100.00
71424;BME280;59240;51.370;-0.486;2024-01-06T01:46:57;100992.41;;;7.57;100.00
71424;BME280;59240;51.370;-0.486;2024-01-06T01:51:54;100984.69;;;7.45;100.00
71424;BME280;59240;51.370;-0.486;2024-01-06T01:56:51;101005.31;;;7.60;100.00
71424;BME280;59240;51.370;-0.486;2024-01-06T02:01:51;101017.41;;;7.61;100.00
71424;BME280;59240;51.370;-0.486;2024-01-06T02:06:48;101036.41;;;7.70;100.00
71424;BME280;59240;51.370;-0.486;2024-01-06T02:11:47;101041.56;;;7.73;100.00
71424;BME280;59240;51.370;-0.486;2024-01-06T02:16:44;100998.50;;;7.47;100.00
71424;BME280;59240;51.370;-0.486;2024-01-06T02:21:41;100999.34;;;7.48;100.00
71424;BME280;59240;51.370;-0.486;2024-01-06T02:26:39;101024.38;;;7.53;100.00
71424;BME280;59240;51.370;-0.486;2024-01-06T02:31:36;101056.22;;;7.75;100.00
71424;BME280;59240;51.370;-0.486;2024-01-06T02:36:32;101057.97;;;7.73;100.00
71424;BME280;59240;51.370;-0.486;2024-01-06T02:41:29;101037.31;;;7.55;100.00
71424;BME280;59240;51.370;-0.486;2024-01-06T02:46:26;101041.63;;;7.60;100.00
71424;BME280;59240;51.370;-0.486;2024-01-06T02:51:23;101075.22;;;7.80;100.00
71424;BME280;59240;51.370;-0.486;2024-01-06T02:56:20;101071.78;;;7.78;100.00
71424;BME280;59240;51.370;-0.486;2024-01-06T03:01:17;101081.28;;;7.84;100.00
71424;BME280;59240;51.370;-0.486;2024-01-06T03:06:14;101084.75;;;7.83;100.00
71424;BME280;59240;51.370;-0.486;2024-01-06T03:11:12;101089.06;;;7.84;100.00
71424;BME280;59240;51.370;-0.486;2024-01-06T03:16:11;101096.81;;;7.87;100.00
71424;BME280;59240;51.370;-0.486;2024-01-06T03:21:21;101092.50;;;7.86;100.00
71424;BME280;59240;51.370;-0.486;2024-01-06T03:26:18;101094.25;;;7.81;100.00
71424;BME280;59240;51.370;-0.486;2024-01-06T03:31:16;101096.84;;;7.81;100.00
71424;BME280;59240;51.370;-0.486;2024-01-06T03:36:13;101090.84;;;7.76;100.00
71424;BME280;59240;51.370;-0.486;2024-01-06T03:41:12;101108.94;;;7.79;100.00
71424;BME280;59240;51.370;-0.486;2024-01-06T03:46:09;101103.75;;;7.82;100.00
71424;BME280;59240;51.370;-0.486;2024-01-06T03:51:06;101114.09;;;7.82;100.00
71424;BME280;59240;51.370;-0.486;2024-01-06T03:56:04;101126.25;;;7.83;100.00
71424;BME280;59240;51.370;-0.486;2024-01-06T04:01:01;101105.53;;;7.71;100.00
71424;BME280;59240;51.370;-0.486;2024-01-06T04:05:58;101106.47;;;7.62;100.00
71424;BME280;59240;51.370;-0.486;2024-01-06T04:10:55;101131.47;;;7.71;100.00
71424;BME280;59240;51.370;-0.486;2024-01-06T04:15:52;101140.09;;;7.76;100.00
71424;BME280;59240;51.370;-0.486;2024-01-06T04:20:49;101146.16;;;7.73;100.00
71424;BME280;59240;51.370;-0.486;2024-01-06T04:25:45;101153.94;;;7.72;100.00
71424;BME280;59240;51.370;-0.486;2024-01-06T04:30:42;101155.69;;;7.70;100.00
71424;BME280;59240;51.370;-0.486;2024-01-06T04:35:39;101154.81;;;7.71;100.00
71424;BME280;59240;51.370;-0.486;2024-01-06T04:40:36;101153.13;;;7.63;100.00
71424;BME280;59240;51.370;-0.486;2024-01-06T04:45:33;101170.38;;;7.71;100.00
71424;BME280;59240;51.370;-0.486;2024-01-06T04:50:30;101177.28;;;7.72;100.00
71424;BME280;59240;51.370;-0.486;2024-01-06T04:55:27;101183.31;;;7.74;100.00
71424;BME280;59240;51.370;-0.486;2024-01-06T05:00:23;101197.16;;;7.76;100.00
71424;BME280;59240;51.370;-0.486;2024-01-06T05:05:23;101183.34;;;7.71;100.00
71424;BME280;59240;51.370;-0.486;2024-01-06T05:10:20;101160.94;;;7.51;100.00
71424;BME280;59240;51.370;-0.486;2024-01-06T05:15:17;101197.19;;;7.70;100.00
71424;BME280;59240;51.370;-0.486;2024-01-06T05:20:14;101216.19;;;7.72;100.00
71424;BME280;59240;51.370;-0.486;2024-01-06T05:25:12;101197.22;;;7.57;100.00
71424;BME280;59240;51.370;-0.486;2024-01-06T05:30:09;101214.47;;;7.64;100.00
71424;BME280;59240;51.370;-0.486;2024-01-06T05:35:06;101217.06;;;7.66;100.00
71424;BME280;59240;51.370;-0.486;2024-01-06T05:40:07;101207.56;;;7.54;100.00
71424;BME280;59240;51.370;-0.486;2024-01-06T05:45:05;101232.63;;;7.63;100.00
71424;BME280;59240;51.370;-0.486;2024-01-06T05:50:02;101240.41;;;7.61;100.00
71424;BME280;59240;51.370;-0.486;2024-01-06T05:54:59;101239.53;;;7.59;100.00
71424;BME280;59240;51.370;-0.486;2024-01-06T05:59:56;101241.25;;;7.60;100.00
71424;BME280;59240;51.370;-0.486;2024-01-06T06:04:53;101249.03;;;7.60;100.00
71424;BME280;59240;51.370;-0.486;2024-01-06T06:09:50;101276.72;;;7.55;100.00
71424;BME280;59240;51.370;-0.486;2024-01-06T06:14:47;101273.28;;;7.50;100.00
71424;BME280;59240;51.370;-0.486;2024-01-06T06:19:43;101281.94;;;7.49;100.00
71424;BME280;59240;51.370;-0.486;2024-01-06T06:24:40;101294.03;;;7.44;100.00
71424;BME280;59240;51.370;-0.486;2024-01-06T06:29:37;101303.53;;;7.44;100.00
71424;BME280;59240;51.370;-0.486;2024-01-06T06:34:34;101309.56;;;7.41;100.00
71424;BME280;59240;51.370;-0.486;2024-01-06T06:39:33;101315.59;;;7.40;100.00
71424;BME280;59240;51.370;-0.486;2024-01-06T06:44:31;101318.22;;;7.37;100.00
71424;BME280;59240;51.370;-0.486;2024-01-06T06:49:27;101321.66;;;7.30;100.00
71424;BME280;59240;51.370;-0.486;2024-01-06T06:54:25;101339.81;;;7.36;100.00
71424;BME280;59240;51.370;-0.486;2024-01-06T06:59:21;101353.66;;;7.35;100.00
71424;BME280;59240;51.370;-0.486;2024-01-06T07:04:18;101368.31;;;7.37;100.00
71424;BME280;59240;51.370;-0.486;2024-01-06T07:09:15;101364.84;;;7.34;100.00
71424;BME280;59240;51.370;-0.486;2024-01-06T07:14:12;101365.72;;;7.31;100.00
71424;BME280;59240;51.370;-0.486;2024-01-06T07:19:09;101358.81;;;7.23;100.00
71424;BME280;59240;51.370;-0.486;2024-01-06T07:24:06;101368.31;;;7.24;100.00
71424;BME280;59240;51.370;-0.486;2024-01-06T07:29:03;101393.38;;;7.32;100.00
71424;BME280;59240;51.370;-0.486;2024-01-06T07:34:00;101408.94;;;7.37;100.00
71424;BME280;59240;51.370;-0.486;2024-01-06T07:38:56;101371.75;;;7.07;100.00
71424;BME280;59240;51.370;-0.486;2024-01-06T07:43:53;101421.88;;;7.34;100.00
71424;BME280;59240;51.370;-0.486;2024-01-06T07:48:51;101395.94;;;7.09;100.00
71424;BME280;59240;51.370;-0.486;2024-01-06T07:53:48;101435.69;;;7.27;100.00
71424;BME280;59240;51.370;-0.486;2024-01-06T07:58:45;101404.53;;;7.05;100.00
71424;BME280;59240;51.370;-0.486;2024-01-06T08:03:41;101439.13;;;7.20;100.00
71424;BME280;59240;51.370;-0.486;2024-01-06T08:08:41;101444.31;;;7.17;100.00
71424;BME280;59240;51.370;-0.486;2024-01-06T08:13:38;101450.38;;;7.14;100.00
71424;BME280;59240;51.370;-0.486;2024-01-06T08:18:34;101457.28;;;7.15;100.00
71424;BME280;59240;51.370;-0.486;2024-01-06T08:23:32;101464.16;;;7.10;100.00
71424;BME280;59240;51.370;-0.486;2024-01-06T08:28:28;101473.63;;;7.06;100.00
71424;BME280;59240;51.370;-0.486;2024-01-06T08:33:25;101489.19;;;7.00;100.00
71424;BME280;59240;51.370;-0.486;2024-01-06T08:38:22;101454.53;;;6.74;100.00
71424;BME280;59240;51.370;-0.486;2024-01-06T08:43:19;101492.53;;;6.81;100.00
71424;BME280;59240;51.370;-0.486;2024-01-06T08:48:17;101469.13;;;6.64;100.00
71424;BME280;59240;51.370;-0.486;2024-01-06T08:53:15;101493.38;;;6.75;100.00
71424;BME280;59240;51.370;-0.486;2024-01-06T08:58:12;101489.88;;;6.67;100.00
71424;BME280;59240;51.370;-0.486;2024-01-06T09:03:09;101529.66;;;6.83;100.00
71424;BME280;59240;51.370;-0.486;2024-01-06T09:08:06;101540.06;;;6.89;100.00
71424;BME280;59240;51.370;-0.486;2024-01-06T09:13:03;101545.22;;;6.92;100.00
71424;BME280;59240;51.370;-0.486;2024-01-06T09:18:01;101560.84;;;7.01;100.00
71424;BME280;59240;51.370;-0.486;2024-01-06T09:22:59;101541.81;;;6.98;100.00
71424;BME280;59240;51.370;-0.486;2024-01-06T09:27:56;101592.91;;;7.22;100.00
71424;BME280;59240;51.370;-0.486;2024-01-06T09:32:53;101551.34;;;7.03;100.00
71424;BME280;59240;51.370;-0.486;2024-01-06T09:37:50;101566.09;;;7.17;100.00
71424;BME280;59240;51.370;-0.486;2024-01-06T09:42:51;101569.63;;;7.28;100.00
71424;BME280;59240;51.370;-0.486;2024-01-06T09:47:50;101575.69;;;7.39;100.00
71424;BME280;59240;51.370;-0.486;2024-01-06T09:52:48;101594.78;;;7.56;100.00
71424;BME280;59240;51.370;-0.486;2024-01-06T09:57:53;101580.94;;;7.48;100.00
71424;BME280;59240;51.370;-0.486;2024-01-06T10:02:51;101621.63;;;7.71;100.00
71424;BME280;59240;51.370;-0.486;2024-01-06T10:07:48;101639.78;;;7.80;100.00
71424;BME280;59240;51.370;-0.486;2024-01-06T10:12:44;101617.25;;;7.66;100.00
71424;BME280;59240;51.370;-0.486;2024-01-06T10:17:43;101641.53;;;7.81;100.00
71424;BME280;59240;51.370;-0.486;2024-01-06T10:22:41;101650.19;;;7.89;100.00
71424;BME280;59240;51.370;-0.486;2024-01-06T10:27:40;101641.56;;;7.90;100.00
71424;BME280;59240;51.370;-0.486;2024-01-06T10:32:39;101655.44;;;7.97;100.00
71424;BME280;59240;51.370;-0.486;2024-01-06T10:37:37;101660.59;;;7.95;100.00
71424;BME280;59240;51.370;-0.486;2024-01-06T10:42:35;101641.56;;;7.93;100.00
71424;BME280;59240;51.370;-0.486;2024-01-06T10:47:34;101656.28;;;8.08;100.00
71424;BME280;59240;51.370;-0.486;2024-01-06T10:52:32;101665.81;;;8.16;100.00
71424;BME280;59240;51.370;-0.486;2024-01-06T10:57:29;101651.97;;;8.14;100.00
71424;BME280;59240;51.370;-0.486;2024-01-06T11:02:29;101672.78;;;8.23;100.00
71424;BME280;59240;51.370;-0.486;2024-01-06T11:07:28;101655.44;;;8.04;100.00
71424;BME280;59240;51.370;-0.486;2024-01-06T11:12:25;101671.88;;;8.15;100.00
71424;BME280;59240;51.370;-0.486;2024-01-06T11:22:45;101670.19;;;8.25;100.00
71424;BME280;59240;51.370;-0.486;2024-01-06T11:27:43;101651.13;;;8.21;100.00
71424;BME280;59240;51.370;-0.486;2024-01-06T11:32:41;101648.56;;;8.28;100.00
71424;BME280;59240;51.370;-0.486;2024-01-06T11:42:36;101662.38;;;8.30;100.00
71424;BME280;59240;51.370;-0.486;2024-01-06T11:47:34;101684.09;;;8.41;100.00
71424;BME280;59240;51.370;-0.486;2024-01-06T11:52:32;101672.81;;;8.36;100.00
71424;BME280;59240;51.370;-0.486;2024-01-06T11:57:30;101666.72;;;8.28;100.00
71424;BME280;59240;51.370;-0.486;2024-01-06T12:02:27;101658.97;;;8.37;100.00
71424;BME280;59240;51.370;-0.486;2024-01-06T12:07:24;101655.47;;;8.35;100.00
71424;BME280;59240;51.370;-0.486;2024-01-06T12:12:21;101646.81;;;8.30;100.00
71424;BME280;59240;51.370;-0.486;2024-01-06T12:17:20;101646.84;;;8.36;100.00
71424;BME280;59240;51.370;-0.486;2024-01-06T12:22:17;101669.41;;;8.52;100.00
71424;BME280;59240;51.370;-0.486;2024-01-06T12:27:14;101665.91;;;8.50;100.00
71424;BME280;59240;51.370;-0.486;2024-01-06T12:32:11;101670.25;;;8.56;100.00
71424;BME280;59240;51.370;-0.486;2024-01-06T12:37:10;101647.75;;;8.48;100.00
71424;BME280;59240;51.370;-0.486;2024-01-06T12:42:09;101652.06;;;8.63;100.00
71424;BME280;59240;51.370;-0.486;2024-01-06T12:47:06;101662.47;;;8.79;100.00
71424;BME280;59240;51.370;-0.486;2024-01-06T12:52:03;101663.31;;;8.84;100.00
71424;BME280;59240;51.370;-0.486;2024-01-06T12:57:00;101633.91;;;8.74;100.00
71424;BME280;59240;51.370;-0.486;2024-01-06T13:01:57;101675.44;;;8.91;100.00
71424;BME280;59240;51.370;-0.486;2024-01-06T13:06:57;101666.78;;;8.87;100.00
71424;BME280;59240;51.370;-0.486;2024-01-06T13:11:59;101648.59;;;8.83;100.00
71424;BME280;59240;51.370;-0.486;2024-01-06T13:16:57;101642.53;;;8.84;100.00
71424;BME280;59240;51.370;-0.486;2024-01-06T13:21:54;101613.97;;;8.74;100.00
71424;BME280;59240;51.370;-0.486;2024-01-06T13:26:51;101670.22;;;9.17;100.00
71424;BME280;59240;51.370;-0.486;2024-01-06T13:31:47;101660.69;;;9.03;100.00
71424;BME280;59240;51.370;-0.486;2024-01-06T13:36:45;101679.78;;;9.01;100.00
71424;BME280;59240;51.370;-0.486;2024-01-06T13:41:43;101678.06;;;8.94;100.00
71424;BME280;59240;51.370;-0.486;2024-01-06T13:46:40;101690.16;;;8.96;100.00
71424;BME280;59240;51.370;-0.486;2024-01-06T13:51:42;101667.63;;;8.85;100.00
71424;BME280;59240;51.370;-0.486;2024-01-06T13:56:39;101710.97;;;9.01;100.00
71424;BME280;59240;51.370;-0.486;2024-01-06T14:01:36;101686.69;;;8.84;100.00
71424;BME280;59240;51.370;-0.486;2024-01-06T14:06:33;101690.16;;;8.76;100.00
71424;BME280;59240;51.370;-0.486;2024-01-06T14:11:30;101710.06;;;8.77;100.00
71424;BME280;59240;51.370;-0.486;2024-01-06T14:16:27;101705.75;;;8.73;100.00
71424;BME280;59240;51.370;-0.486;2024-01-06T14:21:24;101674.59;;;8.52;100.00
71424;BME280;59240;51.370;-0.486;2024-01-06T14:26:21;101693.63;;;8.60;100.00
71424;BME280;59240;51.370;-0.486;2024-01-06T14:31:18;101718.72;;;8.64;100.00
71424;BME280;59240;51.370;-0.486;2024-01-06T14:36:15;101726.53;;;8.58;100.00
71424;BME280;59240;51.370;-0.486;2024-01-06T14:41:12;101738.66;;;8.65;100.00
71424;BME280;59240;51.370;-0.486;2024-01-06T14:46:09;101736.06;;;8.59;100.00
71424;BME280;59240;51.370;-0.486;2024-01-06T14:51:06;101727.38;;;8.46;100.00
71424;BME280;59240;51.370;-0.486;2024-01-06T14:56:03;101745.56;;;8.45;100.00
71424;BME280;59240;51.370;-0.486;2024-01-06T15:01:01;101736.84;;;8.31;100.00
71424;BME280;59240;51.370;-0.486;2024-01-06T15:05:58;101764.59;;;8.39;100.00
71424;BME280;59240;51.370;-0.486;2024-01-06T15:10:55;101768.00;;;8.34;100.00
71424;BME280;59240;51.370;-0.486;2024-01-06T15:15:52;101767.97;;;8.28;100.00
71424;BME280;59240;51.370;-0.486;2024-01-06T15:20:51;101774.88;;;8.26;100.00
71424;BME280;59240;51.370;-0.486;2024-01-06T15:25:48;101744.50;;;8.00;100.00
71424;BME280;59240;51.370;-0.486;2024-01-06T15:30:45;101754.88;;;8.00;100.00
71424;BME280;59240;51.370;-0.486;2024-01-06T15:35:42;101757.44;;;7.91;100.00
71424;BME280;59240;51.370;-0.486;2024-01-06T15:40:39;101782.56;;;8.00;100.00
71424;BME280;59240;51.370;-0.486;2024-01-06T15:45:36;101805.91;;;8.01;100.00
71424;BME280;59240;51.370;-0.486;2024-01-06T15:50:32;101798.06;;;7.89;100.00
71424;BME280;59240;51.370;-0.486;2024-01-06T15:55:29;101781.56;;;7.72;100.00
71424;BME280;59240;51.370;-0.486;2024-01-06T16:00:26;101816.22;;;7.83;100.00
71424;BME280;59240;51.370;-0.486;2024-01-06T16:05:23;101791.78;;;7.50;96.19
71424;BME280;59240;51.370;-0.486;2024-01-06T16:10:20;101836.88;;;7.69;98.21
71424;BME280;59240;51.370;-0.486;2024-01-06T16:15:18;101827.25;;;7.54;100.00
71424;BME280;59240;51.370;-0.486;2024-01-06T16:20:17;101843.75;;;7.67;99.89
71424;BME280;59240;51.370;-0.486;2024-01-06T16:25:13;101833.34;;;7.59;100.00
71424;BME280;59240;51.370;-0.486;2024-01-06T16:30:12;101861.09;;;7.70;100.00
71424;BME280;59240;51.370;-0.486;2024-01-06T16:35:09;101852.41;;;7.64;100.00
71424;BME280;59240;51.370;-0.486;2024-01-06T16:40:08;101876.66;;;7.70;100.00
71424;BME280;59240;51.370;-0.486;2024-01-06T16:45:07;101850.56;;;7.54;100.00
71424;BME280;59240;51.370;-0.486;2024-01-06T16:50:05;101862.72;;;7.55;100.00
71424;BME280;59240;51.370;-0.486;2024-01-06T16:55:02;101864.44;;;7.56;100.00
71424;BME280;59240;51.370;-0.486;2024-01-06T17:00:00;101890.50;;;7.72;100.00
71424;BME280;59240;51.370;-0.486;2024-01-06T17:04:57;101880.06;;;7.62;100.00
71424;BME280;59240;51.370;-0.486;2024-01-06T17:09:55;101860.94;;;7.48;100.00
71424;BME280;59240;51.370;-0.486;2024-01-06T17:14:56;101888.66;;;7.58;100.00
71424;BME280;59240;51.370;-0.486;2024-01-06T17:19:52;101846.03;;;7.27;100.00
71424;BME280;59240;51.370;-0.486;2024-01-06T17:24:50;101870.34;;;7.40;100.00
71424;BME280;59240;51.370;-0.486;2024-01-06T17:29:47;101900.75;;;7.59;100.00
71424;BME280;59240;51.370;-0.486;2024-01-06T17:34:45;101866.00;;;7.36;100.00
71424;BME280;59240;51.370;-0.486;2024-01-06T17:39:42;101878.16;;;7.46;100.00
71424;BME280;59240;51.370;-0.486;2024-01-06T17:44:39;101910.28;;;7.60;100.00
71424;BME280;59240;51.370;-0.486;2024-01-06T17:49:41;101903.28;;;7.50;100.00
71424;BME280;59240;51.370;-0.486;2024-01-06T17:54:38;101916.31;;;7.59;100.00
71424;BME280;59240;51.370;-0.486;2024-01-06T17:59:35;101924.97;;;7.58;100.00
71424;BME280;59240;51.370;-0.486;2024-01-06T18:04:32;101896.25;;;7.40;100.00
71424;BME280;59240;51.370;-0.486;2024-01-06T18:09:29;101914.50;;;7.49;100.00
71424;BME280;59240;51.370;-0.486;2024-01-06T18:14:28;101923.16;;;7.51;100.00
71424;BME280;59240;51.370;-0.486;2024-01-06T18:19:31;101913.47;;;7.32;100.00
71424;BME280;59240;51.370;-0.486;2024-01-06T18:24:28;101950.88;;;7.55;100.00
71424;BME280;59240;51.370;-0.486;2024-01-06T18:29:26;101944.63;;;7.36;100.00
71424;BME280;59240;51.370;-0.486;2024-01-06T18:34:23;101969.72;;;7.39;100.00
71424;BME280;59240;51.370;-0.486;2024-01-06T18:39:20;101966.91;;;7.18;100.00
71424;BME280;59240;51.370;-0.486;2024-01-06T18:44:17;101979.00;;;7.19;100.00
71424;BME280;59240;51.370;-0.486;2024-01-06T18:49:15;101972.78;;;7.04;100.00
71424;BME280;59240;51.370;-0.486;2024-01-06T18:54:13;101941.34;;;6.74;100.00
71424;BME280;59240;51.370;-0.486;2024-01-06T18:59:22;101960.44;;;6.82;100.00
71424;BME280;59240;51.370;-0.486;2024-01-06T19:04:19;101986.34;;;6.82;100.00
71424;BME280;59240;51.370;-0.486;2024-01-06T19:09:16;101998.47;;;6.86;100.00
71424;BME280;59240;51.370;-0.486;2024-01-06T19:14:13;102012.31;;;6.88;100.00
71424;BME280;59240;51.370;-0.486;2024-01-06T19:19:09;102006.28;;;6.89;100.00
71424;BME280;59240;51.370;-0.486;2024-01-06T19:24:06;102007.22;;;6.94;100.00
71424;BME280;59240;51.370;-0.486;2024-01-06T19:29:03;102003.72;;;6.92;100.00
71424;BME280;59240;51.370;-0.486;2024-01-06T19:34:01;101983.59;;;6.71;100.00
71424;BME280;59240;51.370;-0.486;2024-01-06T19:38:57;102007.00;;;6.79;100.00
71424;BME280;59240;51.370;-0.486;2024-01-06T19:43:54;102023.47;;;6.82;100.00
71424;BME280;59240;51.370;-0.486;2024-01-06T19:48:52;102003.34;;;6.63;100.00
71424;BME280;59240;51.370;-0.486;2024-01-06T19:53:51;102024.03;;;6.62;100.00
71424;BME280;59240;51.370;-0.486;2024-01-06T19:58:48;101979.56;;;6.29;100.00
71424;BME280;59240;51.370;-0.486;2024-01-06T20:03:45;101984.63;;;6.22;100.00
71424;BME280;59240;51.370;-0.486;2024-01-06T20:08:42;102026.22;;;6.34;99.32
71424;BME280;59240;51.370;-0.486;2024-01-06T20:13:39;102007.72;;;6.10;100.00
71424;BME280;59240;51.370;-0.486;2024-01-06T20:18:36;102032.91;;;6.20;100.00
71424;BME280;59240;51.370;-0.486;2024-01-06T20:23:33;102022.13;;;5.94;100.00
71424;BME280;59240;51.370;-0.486;2024-01-06T20:28:30;102045.53;;;6.01;100.00
71424;BME280;59240;51.370;-0.486;2024-01-06T20:33:27;102024.56;;;5.86;100.00
71424;BME280;59240;51.370;-0.486;2024-01-06T20:38:30;102049.72;;;5.93;100.00
71424;BME280;59240;51.370;-0.486;2024-01-06T20:43:27;102034.75;;;5.77;100.00
71424;BME280;59240;51.370;-0.486;2024-01-06T20:48:23;102004.97;;;5.52;100.00
71424;BME280;59240;51.370;-0.486;2024-01-06T20:53:20;102048.50;;;5.76;100.00
71424;BME280;59240;51.370;-0.486;2024-01-06T20:58:17;102049.31;;;5.73;100.00
71424;BME280;59240;51.370;-0.486;2024-01-06T21:03:14;102051.00;;;5.71;100.00
71424;BME280;59240;51.370;-0.486;2024-01-06T21:08:11;102051.88;;;5.70;100.00
71424;BME280;59240;51.370;-0.486;2024-01-06T21:13:08;102042.34;;;5.69;100.00
71424;BME280;59240;51.370;-0.486;2024-01-06T21:18:05;102020.69;;;5.63;100.00
71424;BME280;59240;51.370;-0.486;2024-01-06T21:23:03;102047.81;;;5.86;100.00
71424;BME280;59240;51.370;-0.486;2024-01-06T21:28:00;101993.03;;;5.59;100.00
71424;BME280;59240;51.370;-0.486;2024-01-06T21:32:57;102011.41;;;5.74;100.00
71424;BME280;59240;51.370;-0.486;2024-01-06T21:37:57;102036.78;;;5.93;100.00
71424;BME280;59240;51.370;-0.486;2024-01-06T21:42:54;102043.78;;;6.00;100.00
71424;BME280;59240;51.370;-0.486;2024-01-06T21:47:51;102007.19;;;5.79;100.00
71424;BME280;59240;51.370;-0.486;2024-01-06T21:52:52;101995.09;;;5.78;100.00
71424;BME280;59240;51.370;-0.486;2024-01-06T21:57:49;102011.75;;;5.92;100.00
71424;BME280;59240;51.370;-0.486;2024-01-06T22:02:47;102052.72;;;6.18;100.00
71424;BME280;59240;51.370;-0.486;2024-01-06T22:07:47;102021.28;;;5.96;100.00
71424;BME280;59240;51.370;-0.486;2024-01-06T22:12:44;102019.53;;;5.92;100.00
71424;BME280;59240;51.370;-0.486;2024-01-06T22:17:41;102061.25;;;6.14;100.00
71424;BME280;59240;51.370;-0.486;2024-01-06T22:22:38;102054.13;;;6.00;100.00
71424;BME280;59240;51.370;-0.486;2024-01-06T22:27:35;102082.75;;;6.10;100.00
71424;BME280;59240;51.370;-0.486;2024-01-06T22:32:32;102084.41;;;6.06;100.00
71424;BME280;59240;51.370;-0.486;2024-01-06T22:37:29;102091.47;;;6.15;100.00
71424;BME280;59240;51.370;-0.486;2024-01-06T22:42:26;102083.69;;;6.15;100.00
71424;BME280;59240;51.370;-0.486;2024-01-06T22:47:23;102088.97;;;6.19;100.00
71424;BME280;59240;51.370;-0.486;2024-01-06T22:52:20;102049.84;;;6.01;100.00
71424;BME280;59240;51.370;-0.486;2024-01-06T22:57:17;102091.47;;;6.16;100.00
71424;BME280;59240;51.370;-0.486;2024-01-06T23:02:14;102124.47;;;6.28;100.00
71424;BME280;59240;51.370;-0.486;2024-01-06T23:07:11;102090.34;;;6.00;100.00
71424;BME280;59240;51.370;-0.486;2024-01-06T23:12:08;102116.38;;;6.10;100.00
71424;BME280;59240;51.370;-0.486;2024-01-06T23:17:05;102130.16;;;6.09;100.00
71424;BME280;59240;51.370;-0.486;2024-01-06T23:22:02;102143.16;;;6.12;100.00
71424;BME280;59240;51.370;-0.486;2024-01-06T23:27:00;102144.78;;;6.05;100.00
71424;BME280;59240;51.370;-0.486;2024-01-06T23:31:57;102091.28;;;5.60;99.78
71424;BME280;59240;51.370;-0.486;2024-01-06T23:36:54;102104.47;;;5.72;100.00
71424;BME280;59240;51.370;-0.486;2024-01-06T23:41:51;102137.31;;;5.76;100.00
71424;BME280;59240;51.370;-0.486;2024-01-06T23:46:48;102160.03;;;5.91;100.00
71424;BME280;59240;51.370;-0.486;2024-01-06T23:51:47;102174.53;;;5.86;100.00
71424;BME280;59240;51.370;-0.486;2024-01-06T23:56:43;102163.19;;;5.78;100.00
